sensor_id;sensor_type;location;lat;lon;timestamp;pressure;altitude;pressure_sealevel;temperature;humidity
56359;BME280;42611;51.132;13.588;2023-06-22T00:00:01;1018.7;;;20.3;100.0
56359;BME280;42611;51.132;13.588;2023-06-22T00:02:02;1018.7;;;20.4;100.0
56359;BME280;42611;51.132;13.588;2023-06-22T00:06:01;1018.7;;;20.3;100.0
56359;BME280;42611;51.132;13.588;2023-06-22T00:12:01;1018.8;;;20.2;100.0
56359;BME280;42611;51.132;13.588;2023-06-22T00:15:01;1018.7;;;20.2;100.0
56359;BME280;42611;51.132;13.588;2023-06-22T00:17:01;1018.8;;;20.1;100.0
56359;BME280;42611;51.132;13.588;2023-06-22T00:23:01;1018.9;;;20.0;100.0
56359;BME280;42611;51.132;13.588;2023-06-22T00:25:01;1019.0;;;19.9;100.0
56359;BME280;42611;51.132;13.588;2023-06-22T00:28:01;1018.9;;;19.8;100.0
56359;BME280;42611;51.132;13.588;2023-06-22T00:30:01;1019.1;;;19.7;100.0
56359;BME280;42611;51.132;13.588;2023-06-22T00:33:01;1019.1;;;19.6;100.0
56359;BME280;42611;51.132;13.588;2023-06-22T00:37:01;1019.1;;;19.5;100.0
56359;BME280;42611;51.132;13.588;2023-06-22T00:41:01;1019.1;;;19.4;100.0
56359;BME280;42611;51.132;13.588;2023-06-22T00:45:01;1019.0;;;19.3;100.0
56359;BME280;42611;51.132;13.588;2023-06-22T00:48:02;1018.9;;;19.2;100.0
56359;BME280;42611;51.132;13.588;2023-06-22T00:52:01;1018.9;;;19.1;100.0
56359;BME280;42611;51.132;13.588;2023-06-22T00:58:01;1018.9;;;19.2;100.0
56359;BME280;42611;51.132;13.588;2023-06-22T01:00:01;1019.0;;;19.2;100.0
56359;BME280;42611;51.132;13.588;2023-06-22T01:02:01;1018.9;;;19.3;100.0
56359;BME280;42611;51.132;13.588;2023-06-22T01:09:08;1018.9;;;19.4;100.0
56359;BME280;42611;51.132;13.588;2023-06-22T01:14:06;1018.9;;;19.3;100.0
56359;BME280;42611;51.132;13.588;2023-06-22T01:15:03;1018.9;;;19.3;100.0
56359;BME280;42611;51.132;13.588;2023-06-22T01:18:02;1018.9;;;19.2;100.0
56359;BME280;42611;51.132;13.588;2023-06-22T01:20:03;1018.8;;;19.1;100.0
56359;BME280;42611;51.132;13.588;2023-06-22T01:23:05;1018.7;;;19.0;100.0
56359;BME280;42611;51.132;13.588;2023-06-22T01:27:09;1018.9;;;18.9;100.0
56359;BME280;42611;51.132;13.588;2023-06-22T01:30:01;1018.9;;;18.9;100.0
56359;BME280;42611;51.132;13.588;2023-06-22T01:32:01;1018.8;;;18.8;100.0
56359;BME280;42611;51.132;13.588;2023-06-22T01:45:01;1018.7;;;18.8;100.0
56359;BME280;42611;51.132;13.588;2023-06-22T01:48:02;1018.7;;;18.9;100.0
56359;BME280;42611;51.132;13.588;2023-06-22T01:55:01;1018.8;;;18.8;100.0
56359;BME280;42611;51.132;13.588;2023-06-22T01:59:04;1018.8;;;18.7;100.0
56359;BME280;42611;51.132;13.588;2023-06-22T02:00:03;1018.8;;;18.7;100.0
56359;BME280;42611;51.132;13.588;2023-06-22T02:02:04;1018.8;;;18.6;100.0
56359;BME280;42611;51.132;13.588;2023-06-22T02:04:03;1018.8;;;18.5;100.0
56359;BME280;42611;51.132;13.588;2023-06-22T02:06:03;1018.7;;;18.4;100.0
56359;BME280;42611;51.132;13.588;2023-06-22T02:15:01;1018.7;;;18.4;100.0
56359;BME280;42611;51.132;13.588;2023-06-22T02:19:02;1018.7;;;18.5;100.0
56359;BME280;42611;51.132;13.588;2023-06-22T02:30:01;1018.8;;;18.6;100.0
56359;BME280;42611;51.132;13.588;2023-06-22T02:38:02;1018.8;;;18.7;100.0
56359;BME280;42611;51.132;13.588;2023-06-22T02:45:01;1018.9;;;18.7;100.0
56359;BME280;42611;51.132;13.588;2023-06-22T02:48:01;1019.0;;;18.8;100.0
56359;BME280;42611;51.132;13.588;2023-06-22T02:54:01;1019.0;;;18.9;100.0
56359;BME280;42611;51.132;13.588;2023-06-22T02:56:02;1019.0;;;18.8;100.0
56359;BME280;42611;51.132;13.588;2023-06-22T03:00:03;1018.9;;;18.8;100.0
56359;BME280;42611;51.132;13.588;2023-06-22T03:08:01;1018.9;;;18.7;100.0
56359;BME280;42611;51.132;13.588;2023-06-22T03:15:02;1018.9;;;18.6;100.0
56359;BME280;42611;51.132;13.588;2023-06-22T03:25:01;1018.7;;;18.5;100.0
56359;BME280;42611;51.132;13.588;2023-06-22T03:30:01;1018.6;;;18.5;100.0
56359;BME280;42611;51.132;13.588;2023-06-22T03:34:01;1018.7;;;18.4;100.0
56359;BME280;42611;51.132;13.588;2023-06-22T03:39:01;1018.7;;;18.3;100.0
56359;BME280;42611;51.132;13.588;2023-06-22T03:45:01;1018.6;;;18.3;100.0
56359;BME280;42611;51.132;13.588;2023-06-22T03:51:01;1018.6;;;18.2;100.0
56359;BME280;42611;51.132;13.588;2023-06-22T03:53:01;1018.6;;;18.3;100.0
56359;BME280;42611;51.132;13.588;2023-06-22T03:57:01;1018.7;;;18.4;100.0
56359;BME280;42611;51.132;13.588;2023-06-22T04:00:01;1018.8;;;18.4;100.0
56359;BME280;42611;51.132;13.588;2023-06-22T04:01:01;1018.7;;;18.5;100.0
56359;BME280;42611;51.132;13.588;2023-06-22T04:10:01;1018.9;;;18.6;100.0
56359;BME280;42611;51.132;13.588;2023-06-22T04:15:01;1019.0;;;18.6;100.0
56359;BME280;42611;51.132;13.588;2023-06-22T04:30:01;1018.8;;;18.6;100.0
56359;BME280;42611;51.132;13.588;2023-06-22T04:36:01;1019.0;;;18.7;100.0
56359;BME280;42611;51.132;13.588;2023-06-22T04:38:01;1019.0;;;18.8;100.0
56359;BME280;42611;51.132;13.588;2023-06-22T04:41:01;1019.1;;;18.9;100.0
56359;BME280;42611;51.132;13.588;2023-06-22T04:43:01;1019.1;;;19.0;100.0
56359;BME280;42611;51.132;13.588;2023-06-22T04:45:03;1019.2;;;19.1;100.0
56359;BME280;42611;51.132;13.588;2023-06-22T04:47:02;1019.2;;;19.2;100.0
56359;BME280;42611;51.132;13.588;2023-06-22T04:49:01;1019.4;;;19.3;100.0
56359;BME280;42611;51.132;13.588;2023-06-22T04:52:03;1019.4;;;19.4;100.0
56359;BME280;42611;51.132;13.588;2023-06-22T04:54:01;1019.5;;;19.5;100.0
56359;BME280;42611;51.132;13.588;2023-06-22T04:56:01;1019.5;;;19.6;100.0
56359;BME280;42611;51.132;13.588;2023-06-22T04:59:01;1019.5;;;19.7;100.0
56359;BME280;42611;51.132;13.588;2023-06-22T05:00:06;1019.5;;;19.7;100.0
56359;BME280;42611;51.132;13.588;2023-06-22T05:02:01;1019.6;;;19.8;100.0
56359;BME280;42611;51.132;13.588;2023-06-22T05:04:02;1019.6;;;19.9;100.0
56359;BME280;42611;51.132;13.588;2023-06-22T05:06:01;1019.6;;;20.0;100.0
56359;BME280;42611;51.132;13.588;2023-06-22T05:09:01;1019.6;;;20.1;100.0
56359;BME280;42611;51.132;13.588;2023-06-22T05:10:02;1019.7;;;20.2;100.0
56359;BME280;42611;51.132;13.588;2023-06-22T05:12:01;1019.7;;;20.3;100.0
56359;BME280;42611;51.132;13.588;2023-06-22T05:13:01;1019.8;;;20.4;100.0
56359;BME280;42611;51.132;13.588;2023-06-22T05:14:01;1019.7;;;20.5;100.0
56359;BME280;42611;51.132;13.588;2023-06-22T05:15:01;1019.7;;;20.6;100.0
56359;BME280;42611;51.132;13.588;2023-06-22T05:16:06;1019.7;;;20.7;100.0
56359;BME280;42611;51.132;13.588;2023-06-22T05:17:01;1019.8;;;20.9;100.0
56359;BME280;42611;51.132;13.588;2023-06-22T05:18:02;1019.8;;;21.0;100.0
56359;BME280;42611;51.132;13.588;2023-06-22T05:19:01;1019.8;;;21.1;100.0
56359;BME280;42611;51.132;13.588;2023-06-22T05:20:01;1019.7;;;21.3;100.0
56359;BME280;42611;51.132;13.588;2023-06-22T05:21:01;1019.7;;;21.4;100.0
56359;BME280;42611;51.132;13.588;2023-06-22T05:22:01;1019.7;;;21.5;100.0
56359;BME280;42611;51.132;13.588;2023-06-22T05:23:01;1019.7;;;21.7;100.0
56359;BME280;42611;51.132;13.588;2023-06-22T05:24:01;1019.6;;;21.8;100.0
56359;BME280;42611;51.132;13.588;2023-06-22T05:25:01;1019.7;;;22.0;100.0
56359;BME280;42611;51.132;13.588;2023-06-22T05:26:01;1019.6;;;22.1;100.0
56359;BME280;42611;51.132;13.588;2023-06-22T05:27:01;1019.7;;;22.2;100.0
56359;BME280;42611;51.132;13.588;2023-06-22T05:28:01;1019.6;;;22.3;100.0
56359;BME280;42611;51.132;13.588;2023-06-22T05:29:18;1019.6;;;22.4;100.0
56359;BME280;42611;51.132;13.588;2023-06-22T05:30:01;1019.6;;;22.5;100.0
56359;BME280;42611;51.132;13.588;2023-06-22T05:31:01;1019.6;;;22.6;100.0
56359;BME280;42611;51.132;13.588;2023-06-22T05:32:01;1019.6;;;22.7;100.0
56359;BME280;42611;51.132;13.588;2023-06-22T05:33:01;1019.5;;;22.8;100.0
56359;BME280;42611;51.132;13.588;2023-06-22T05:34:01;1019.5;;;22.9;100.0
56359;BME280;42611;51.132;13.588;2023-06-22T05:36:01;1019.4;;;23.0;100.0
56359;BME280;42611;51.132;13.588;2023-06-22T05:37:01;1019.4;;;23.1;100.0
56359;BME280;42611;51.132;13.588;2023-06-22T05:39:10;1019.4;;;23.2;100.0
56359;BME280;42611;51.132;13.588;2023-06-22T05:40:01;1019.4;;;23.3;100.0
56359;BME280;42611;51.132;13.588;2023-06-22T05:42:01;1019.4;;;23.4;100.0
56359;BME280;42611;51.132;13.588;2023-06-22T05:44:01;1019.4;;;23.5;100.0
56359;BME280;42611;51.132;13.588;2023-06-22T05:45:01;1019.4;;;23.6;100.0
56359;BME280;42611;51.132;13.588;2023-06-22T05:47:01;1019.5;;;23.7;100.0
56359;BME280;42611;51.132;13.588;2023-06-22T05:49:01;1019.4;;;23.8;100.0
56359;BME280;42611;51.132;13.588;2023-06-22T05:50:01;1019.4;;;23.9;100.0
56359;BME280;42611;51.132;13.588;2023-06-22T05:52:01;1019.5;;;24.0;100.0
56359;BME280;42611;51.132;13.588;2023-06-22T05:53:01;1019.4;;;24.1;100.0
56359;BME280;42611;51.132;13.588;2023-06-22T05:54:01;1019.4;;;24.2;100.0
56359;BME280;42611;51.132;13.588;2023-06-22T05:55:02;1019.4;;;24.3;100.0
56359;BME280;42611;51.132;13.588;2023-06-22T05:56:01;1019.4;;;24.4;100.0
56359;BME280;42611;51.132;13.588;2023-06-22T05:57:01;1019.4;;;24.5;100.0
56359;BME280;42611;51.132;13.588;2023-06-22T05:58:01;1019.3;;;24.6;100.0
56359;BME280;42611;51.132;13.588;2023-06-22T05:59:01;1019.3;;;24.7;100.0
56359;BME280;42611;51.132;13.588;2023-06-22T06:00:02;1019.3;;;24.8;100.0
56359;BME280;42611;51.132;13.588;2023-06-22T06:01:01;1019.3;;;24.9;100.0
56359;BME280;42611;51.132;13.588;2023-06-22T06:02:01;1019.2;;;25.0;100.0
56359;BME280;42611;51.132;13.588;2023-06-22T06:03:01;1019.2;;;25.1;100.0
56359;BME280;42611;51.132;13.588;2023-06-22T06:04:03;1019.1;;;25.2;100.0
56359;BME280;42611;51.132;13.588;2023-06-22T06:05:01;1019.2;;;25.3;100.0
56359;BME280;42611;51.132;13.588;2023-06-22T06:07:01;1019.2;;;25.4;100.0
56359;BME280;42611;51.132;13.588;2023-06-22T06:08:02;1019.2;;;25.5;100.0
56359;BME280;42611;51.132;13.588;2023-06-22T06:09:01;1019.2;;;25.6;100.0
56359;BME280;42611;51.132;13.588;2023-06-22T06:11:01;1019.2;;;25.7;100.0
56359;BME280;42611;51.132;13.588;2023-06-22T06:12:01;1019.1;;;25.8;100.0
56359;BME280;42611;51.132;13.588;2023-06-22T06:14:01;1019.0;;;25.9;100.0
56359;BME280;42611;51.132;13.588;2023-06-22T06:15:01;1019.1;;;25.9;100.0
56359;BME280;42611;51.132;13.588;2023-06-22T06:16:01;1019.0;;;26.0;100.0
56359;BME280;42611;51.132;13.588;2023-06-22T06:19:02;1018.8;;;26.1;100.0
56359;BME280;42611;51.132;13.588;2023-06-22T06:20:01;1018.8;;;26.2;100.0
56359;BME280;42611;51.132;13.588;2023-06-22T06:22:01;1018.6;;;26.3;100.0
56359;BME280;42611;51.132;13.588;2023-06-22T06:30:01;1018.4;;;26.3;100.0
56359;BME280;42611;51.132;13.588;2023-06-22T06:33:01;1018.3;;;26.2;100.0
56359;BME280;42611;51.132;13.588;2023-06-22T06:34:01;1018.3;;;26.1;100.0
56359;BME280;42611;51.132;13.588;2023-06-22T06:36:01;1018.2;;;26.0;100.0
56359;BME280;42611;51.132;13.588;2023-06-22T06:37:01;1018.2;;;25.9;100.0
56359;BME280;42611;51.132;13.588;2023-06-22T06:38:01;1018.2;;;25.8;100.0
56359;BME280;42611;51.132;13.588;2023-06-22T06:39:01;1018.2;;;25.7;100.0
56359;BME280;42611;51.132;13.588;2023-06-22T06:41:01;1018.2;;;25.6;100.0
56359;BME280;42611;51.132;13.588;2023-06-22T06:43:01;1018.2;;;25.5;100.0
56359;BME280;42611;51.132;13.588;2023-06-22T06:45:01;1018.1;;;25.4;100.0
56359;BME280;42611;51.132;13.588;2023-06-22T06:47:01;1018.1;;;25.3;100.0
56359;BME280;42611;51.132;13.588;2023-06-22T06:53:01;1018.2;;;25.4;100.0
56359;BME280;42611;51.132;13.588;2023-06-22T06:58:02;1018.3;;;25.5;100.0
56359;BME280;42611;51.132;13.588;2023-06-22T07:00:01;1018.3;;;25.5;100.0
56359;BME280;42611;51.132;13.588;2023-06-22T07:01:01;1018.4;;;25.6;100.0
56359;BME280;42611;51.132;13.588;2023-06-22T07:03:01;1018.3;;;25.7;100.0
56359;BME280;42611;51.132;13.588;2023-06-22T07:04:01;1018.4;;;25.8;100.0
56359;BME280;42611;51.132;13.588;2023-06-22T07:05:01;1018.4;;;25.9;100.0
56359;BME280;42611;51.132;13.588;2023-06-22T07:06:01;1018.4;;;26.0;100.0
56359;BME280;42611;51.132;13.588;2023-06-22T07:07:01;1018.4;;;26.1;100.0
56359;BME280;42611;51.132;13.588;2023-06-22T07:08:01;1018.5;;;26.2;100.0
56359;BME280;42611;51.132;13.588;2023-06-22T07:09:01;1018.5;;;26.4;100.0
56359;BME280;42611;51.132;13.588;2023-06-22T07:10:07;1018.5;;;26.5;100.0
56359;BME280;42611;51.132;13.588;2023-06-22T07:11:01;1018.5;;;26.6;100.0
56359;BME280;42611;51.132;13.588;2023-06-22T07:12:01;1018.5;;;26.8;100.0
56359;BME280;42611;51.132;13.588;2023-06-22T07:13:01;1018.5;;;26.9;100.0
56359;BME280;42611;51.132;13.588;2023-06-22T07:15:05;1018.4;;;27.0;100.0
56359;BME280;42611;51.132;13.588;2023-06-22T07:16:01;1018.4;;;27.2;100.0
56359;BME280;42611;51.132;13.588;2023-06-22T07:17:01;1018.4;;;27.3;100.0
56359;BME280;42611;51.132;13.588;2023-06-22T07:18:01;1018.4;;;27.4;100.0
56359;BME280;42611;51.132;13.588;2023-06-22T07:19:01;1018.4;;;27.5;100.0
56359;BME280;42611;51.132;13.588;2023-06-22T07:20:02;1018.4;;;27.7;100.0
56359;BME280;42611;51.132;13.588;2023-06-22T07:22:01;1018.5;;;27.8;100.0
56359;BME280;42611;51.132;13.588;2023-06-22T07:23:01;1018.5;;;27.9;100.0
56359;BME280;42611;51.132;13.588;2023-06-22T07:24:01;1018.4;;;28.0;100.0
56359;BME280;42611;51.132;13.588;2023-06-22T07:25:01;1018.5;;;28.1;100.0
56359;BME280;42611;51.132;13.588;2023-06-22T07:26:01;1018.6;;;28.2;100.0
56359;BME280;42611;51.132;13.588;2023-06-22T07:27:01;1018.6;;;28.3;100.0
56359;BME280;42611;51.132;13.588;2023-06-22T07:28:02;1018.6;;;28.4;100.0
56359;BME280;42611;51.132;13.588;2023-06-22T07:29:01;1018.6;;;28.5;100.0
56359;BME280;42611;51.132;13.588;2023-06-22T07:30:01;1018.6;;;28.6;100.0
56359;BME280;42611;51.132;13.588;2023-06-22T07:31:01;1018.5;;;28.7;100.0
56359;BME280;42611;51.132;13.588;2023-06-22T07:32:01;1018.5;;;28.8;100.0
56359;BME280;42611;51.132;13.588;2023-06-22T07:34:01;1018.5;;;28.9;100.0
56359;BME280;42611;51.132;13.588;2023-06-22T07:36:01;1018.5;;;29.0;100.0
56359;BME280;42611;51.132;13.588;2023-06-22T07:38:06;1018.4;;;29.1;100.0
56359;BME280;42611;51.132;13.588;2023-06-22T07:45:02;1018.5;;;29.1;100.0
56359;BME280;42611;51.132;13.588;2023-06-22T07:46:01;1018.5;;;29.2;100.0
56359;BME280;42611;51.132;13.588;2023-06-22T07:50:01;1018.5;;;29.3;100.0
56359;BME280;42611;51.132;13.588;2023-06-22T07:53:01;1018.5;;;29.4;100.0
56359;BME280;42611;51.132;13.588;2023-06-22T07:56:01;1018.5;;;29.5;100.0
56359;BME280;42611;51.132;13.588;2023-06-22T07:58:01;1018.6;;;29.6;100.0
56359;BME280;42611;51.132;13.588;2023-06-22T08:00:06;1018.5;;;29.7;100.0
56359;BME280;42611;51.132;13.588;2023-06-22T08:02:01;1018.5;;;29.8;100.0
56359;BME280;42611;51.132;13.588;2023-06-22T08:04:01;1018.5;;;29.9;100.0
56359;BME280;42611;51.132;13.588;2023-06-22T08:07:01;1018.5;;;30.0;100.0
56359;BME280;42611;51.132;13.588;2023-06-22T08:09:02;1018.4;;;30.1;100.0
56359;BME280;42611;51.132;13.588;2023-06-22T08:11:01;1018.5;;;30.2;100.0
56359;BME280;42611;51.132;13.588;2023-06-22T08:13:11;1018.5;;;30.3;100.0
56359;BME280;42611;51.132;13.588;2023-06-22T08:15:01;1018.4;;;30.4;100.0
56359;BME280;42611;51.132;13.588;2023-06-22T08:17:01;1018.4;;;30.5;100.0
56359;BME280;42611;51.132;13.588;2023-06-22T08:18:01;1018.5;;;30.6;100.0
56359;BME280;42611;51.132;13.588;2023-06-22T08:21:07;1018.4;;;30.7;100.0
56359;BME280;42611;51.132;13.588;2023-06-22T08:23:01;1018.4;;;30.8;100.0
56359;BME280;42611;51.132;13.588;2023-06-22T08:26:01;1018.3;;;30.9;100.0
56359;BME280;42611;51.132;13.588;2023-06-22T08:28:03;1018.3;;;31.0;100.0
56359;BME280;42611;51.132;13.588;2023-06-22T08:30:02;1018.4;;;31.1;100.0
56359;BME280;42611;51.132;13.588;2023-06-22T08:31:01;1018.4;;;31.2;100.0
56359;BME280;42611;51.132;13.588;2023-06-22T08:32:01;1018.4;;;31.3;100.0
56359;BME280;42611;51.132;13.588;2023-06-22T08:34:01;1018.4;;;31.4;100.0
56359;BME280;42611;51.132;13.588;2023-06-22T08:36:01;1018.4;;;31.5;100.0
56359;BME280;42611;51.132;13.588;2023-06-22T08:38:01;1018.3;;;31.6;100.0
56359;BME280;42611;51.132;13.588;2023-06-22T08:41:01;1018.4;;;31.7;100.0
56359;BME280;42611;51.132;13.588;2023-06-22T08:43:01;1018.4;;;31.8;100.0
56359;BME280;42611;51.132;13.588;2023-06-22T08:45:01;1018.4;;;31.9;97.8
56359;BME280;42611;51.132;13.588;2023-06-22T08:49:01;1018.3;;;32.0;97.7
56359;BME280;42611;51.132;13.588;2023-06-22T08:51:01;1018.3;;;32.1;98.2
56359;BME280;42611;51.132;13.588;2023-06-22T08:52:01;1018.3;;;32.2;99.1
56359;BME280;42611;51.132;13.588;2023-06-22T08:53:01;1018.3;;;32.3;97.7
56359;BME280;42611;51.132;13.588;2023-06-22T08:54:01;1018.3;;;32.4;95.5
56359;BME280;42611;51.132;13.588;2023-06-22T08:56:01;1018.3;;;32.5;92.4
56359;BME280;42611;51.132;13.588;2023-06-22T08:58:01;1018.3;;;32.6;92.0
56359;BME280;42611;51.132;13.588;2023-06-22T08:59:01;1018.3;;;32.5;88.1
56359;BME280;42611;51.132;13.588;2023-06-22T09:00:01;1018.3;;;32.5;86.8
56359;BME280;42611;51.132;13.588;2023-06-22T09:01:01;1018.2;;;32.6;88.8
56359;BME280;42611;51.132;13.588;2023-06-22T09:11:01;1018.3;;;32.5;83.2
56359;BME280;42611;51.132;13.588;2023-06-22T09:15:01;1018.2;;;32.4;84.5
56359;BME280;42611;51.132;13.588;2023-06-22T09:19:02;1018.1;;;32.3;82.1
56359;BME280;42611;51.132;13.588;2023-06-22T09:21:01;1018.2;;;32.2;76.4
56359;BME280;42611;51.132;13.588;2023-06-22T09:22:02;1018.2;;;32.1;81.6
56359;BME280;42611;51.132;13.588;2023-06-22T09:25:01;1018.1;;;32.0;83.6
56359;BME280;42611;51.132;13.588;2023-06-22T09:30:01;1018.0;;;32.1;79.7
56359;BME280;42611;51.132;13.588;2023-06-22T09:32:03;1018.1;;;32.2;75.3
56359;BME280;42611;51.132;13.588;2023-06-22T09:34:11;1018.0;;;32.3;79.8
56359;BME280;42611;51.132;13.588;2023-06-22T09:35:03;1018.0;;;32.4;80.7
56359;BME280;42611;51.132;13.588;2023-06-22T09:36:01;1018.1;;;32.5;80.5
56359;BME280;42611;51.132;13.588;2023-06-22T09:37:01;1018.0;;;32.6;80.6
56359;BME280;42611;51.132;13.588;2023-06-22T09:38:01;1017.9;;;32.7;81.5
56359;BME280;42611;51.132;13.588;2023-06-22T09:40:01;1017.9;;;32.8;83.4
56359;BME280;42611;51.132;13.588;2023-06-22T09:44:01;1017.9;;;32.9;82.7
56359;BME280;42611;51.132;13.588;2023-06-22T09:45:01;1017.9;;;32.9;82.3
56359;BME280;42611;51.132;13.588;2023-06-22T09:50:01;1017.9;;;32.8;81.4
56359;BME280;42611;51.132;13.588;2023-06-22T09:55:01;1017.8;;;32.9;80.4
56359;BME280;42611;51.132;13.588;2023-06-22T09:57:01;1017.8;;;33.0;81.1
56359;BME280;42611;51.132;13.588;2023-06-22T10:00:01;1017.9;;;33.1;76.0
56359;BME280;42611;51.132;13.588;2023-06-22T10:03:02;1017.9;;;33.2;74.9
56359;BME280;42611;51.132;13.588;2023-06-22T10:05:02;1017.8;;;33.3;75.1
56359;BME280;42611;51.132;13.588;2023-06-22T10:11:01;1017.8;;;33.4;74.8
56359;BME280;42611;51.132;13.588;2023-06-22T10:13:04;1017.8;;;33.3;75.1
56359;BME280;42611;51.132;13.588;2023-06-22T10:15:02;1017.7;;;33.3;76.7
56359;BME280;42611;51.132;13.588;2023-06-22T10:27:01;1017.7;;;33.2;75.9
56359;BME280;42611;51.132;13.588;2023-06-22T10:30:01;1017.6;;;33.2;77.1
56359;BME280;42611;51.132;13.588;2023-06-22T10:39:02;1017.6;;;33.1;73.4
56359;BME280;42611;51.132;13.588;2023-06-22T10:43:01;1017.4;;;33.0;76.1
56359;BME280;42611;51.132;13.588;2023-06-22T10:45:01;1017.4;;;33.0;76.4
56359;BME280;42611;51.132;13.588;2023-06-22T10:46:01;1017.4;;;32.9;77.0
56359;BME280;42611;51.132;13.588;2023-06-22T10:48:01;1017.3;;;32.8;77.4
56359;BME280;42611;51.132;13.588;2023-06-22T10:51:01;1017.3;;;32.7;73.5
56359;BME280;42611;51.132;13.588;2023-06-22T10:53:01;1017.3;;;32.8;72.5
56359;BME280;42611;51.132;13.588;2023-06-22T10:55:01;1017.2;;;32.9;72.7
56359;BME280;42611;51.132;13.588;2023-06-22T10:59:01;1017.3;;;33.0;72.2
56359;BME280;42611;51.132;13.588;2023-06-22T11:00:01;1017.3;;;33.0;72.2
56359;BME280;42611;51.132;13.588;2023-06-22T11:01:01;1017.3;;;33.1;69.9
56359;BME280;42611;51.132;13.588;2023-06-22T11:03:02;1017.2;;;33.2;73.0
56359;BME280;42611;51.132;13.588;2023-06-22T11:05:02;1017.4;;;33.3;66.9
56359;BME280;42611;51.132;13.588;2023-06-22T11:10:01;1017.3;;;33.4;72.4
56359;BME280;42611;51.132;13.588;2023-06-22T11:12:02;1017.2;;;33.5;68.9
56359;BME280;42611;51.132;13.588;2023-06-22T11:13:01;1017.1;;;33.6;70.4
56359;BME280;42611;51.132;13.588;2023-06-22T11:14:01;1017.2;;;33.7;68.5
56359;BME280;42611;51.132;13.588;2023-06-22T11:15:02;1017.2;;;33.7;68.2
56359;BME280;42611;51.132;13.588;2023-06-22T11:23:01;1017.2;;;33.8;68.4
56359;BME280;42611;51.132;13.588;2023-06-22T11:25:01;1017.2;;;33.9;66.9
56359;BME280;42611;51.132;13.588;2023-06-22T11:30:02;1017.1;;;33.9;67.7
56359;BME280;42611;51.132;13.588;2023-06-22T11:33:11;1017.0;;;34.0;66.6
56359;BME280;42611;51.132;13.588;2023-06-22T11:35:01;1017.0;;;34.1;67.2
56359;BME280;42611;51.132;13.588;2023-06-22T11:36:01;1017.1;;;34.2;65.6
56359;BME280;42611;51.132;13.588;2023-06-22T11:38:01;1017.0;;;34.3;64.9
56359;BME280;42611;51.132;13.588;2023-06-22T11:42:01;1016.9;;;34.4;68.2
56359;BME280;42611;51.132;13.588;2023-06-22T11:45:01;1016.9;;;34.4;68.0
56359;BME280;42611;51.132;13.588;2023-06-22T11:49:01;1016.9;;;34.3;67.9
56359;BME280;42611;51.132;13.588;2023-06-22T11:50:02;1016.9;;;34.2;69.8
56359;BME280;42611;51.132;13.588;2023-06-22T11:51:01;1016.8;;;34.1;70.9
56359;BME280;42611;51.132;13.588;2023-06-22T11:52:01;1016.8;;;33.9;72.5
56359;BME280;42611;51.132;13.588;2023-06-22T11:53:02;1016.8;;;33.8;71.5
56359;BME280;42611;51.132;13.588;2023-06-22T11:54:01;1016.7;;;33.7;71.3
56359;BME280;42611;51.132;13.588;2023-06-22T11:56:01;1016.8;;;33.6;68.3
56359;BME280;42611;51.132;13.588;2023-06-22T11:58:01;1016.8;;;33.5;66.6
56359;BME280;42611;51.132;13.588;2023-06-22T12:00:01;1016.7;;;33.4;66.9
56359;BME280;42611;51.132;13.588;2023-06-22T12:06:02;1016.7;;;33.5;64.1
56359;BME280;42611;51.132;13.588;2023-06-22T12:07:01;1016.7;;;33.6;68.3
56359;BME280;42611;51.132;13.588;2023-06-22T12:09:01;1016.6;;;33.7;69.0
56359;BME280;42611;51.132;13.588;2023-06-22T12:12:01;1016.6;;;33.8;67.2
56359;BME280;42611;51.132;13.588;2023-06-22T12:15:01;1016.5;;;33.8;66.2
56359;BME280;42611;51.132;13.588;2023-06-22T12:16:01;1016.5;;;33.9;66.5
56359;BME280;42611;51.132;13.588;2023-06-22T12:28:01;1016.4;;;33.8;67.7
56359;BME280;42611;51.132;13.588;2023-06-22T12:30:01;1016.3;;;33.8;68.7
56359;BME280;42611;51.132;13.588;2023-06-22T12:37:01;1016.2;;;33.7;70.3
56359;BME280;42611;51.132;13.588;2023-06-22T12:39:01;1016.1;;;33.6;69.0
56359;BME280;42611;51.132;13.588;2023-06-22T12:41:01;1016.2;;;33.5;70.0
56359;BME280;42611;51.132;13.588;2023-06-22T12:43:01;1016.1;;;33.4;70.2
56359;BME280;42611;51.132;13.588;2023-06-22T12:45:01;1016.1;;;33.4;70.4
56359;BME280;42611;51.132;13.588;2023-06-22T12:46:01;1016.1;;;33.3;70.3
56359;BME280;42611;51.132;13.588;2023-06-22T12:51:01;1016.1;;;33.4;66.9
56359;BME280;42611;51.132;13.588;2023-06-22T12:53:01;1016.0;;;33.5;69.3
56359;BME280;42611;51.132;13.588;2023-06-22T12:55:01;1016.1;;;33.6;67.0
56359;BME280;42611;51.132;13.588;2023-06-22T12:56:01;1016.1;;;33.7;67.7
56359;BME280;42611;51.132;13.588;2023-06-22T12:58:01;1016.0;;;33.8;68.0
56359;BME280;42611;51.132;13.588;2023-06-22T13:00:07;1016.1;;;33.9;66.3
56359;BME280;42611;51.132;13.588;2023-06-22T13:02:01;1016.0;;;34.0;68.0
56359;BME280;42611;51.132;13.588;2023-06-22T13:10:01;1015.9;;;33.9;68.1
56359;BME280;42611;51.132;13.588;2023-06-22T13:13:01;1015.9;;;33.8;69.3
56359;BME280;42611;51.132;13.588;2023-06-22T13:15:01;1015.9;;;33.8;67.2
56359;BME280;42611;51.132;13.588;2023-06-22T13:20:01;1015.9;;;33.9;66.0
56359;BME280;42611;51.132;13.588;2023-06-22T13:22:01;1015.9;;;34.0;63.0
56359;BME280;42611;51.132;13.588;2023-06-22T13:24:01;1015.9;;;34.1;61.9
56359;BME280;42611;51.132;13.588;2023-06-22T13:25:01;1015.9;;;34.2;63.4
56359;BME280;42611;51.132;13.588;2023-06-22T13:27:01;1015.9;;;34.3;62.7
56359;BME280;42611;51.132;13.588;2023-06-22T13:29:11;1015.7;;;34.4;63.6
56359;BME280;42611;51.132;13.588;2023-06-22T13:30:01;1015.7;;;34.5;62.7
56359;BME280;42611;51.132;13.588;2023-06-22T13:32:01;1015.8;;;34.6;61.9
56359;BME280;42611;51.132;13.588;2023-06-22T13:34:01;1015.7;;;34.7;64.0
56359;BME280;42611;51.132;13.588;2023-06-22T13:36:01;1015.7;;;34.6;65.8
56359;BME280;42611;51.132;13.588;2023-06-22T13:39:02;1015.6;;;34.5;64.9
56359;BME280;42611;51.132;13.588;2023-06-22T13:42:01;1015.5;;;34.4;64.4
56359;BME280;42611;51.132;13.588;2023-06-22T13:45:01;1015.4;;;34.3;65.8
56359;BME280;42611;51.132;13.588;2023-06-22T13:47:01;1015.3;;;34.2;65.9
56359;BME280;42611;51.132;13.588;2023-06-22T13:49:01;1015.2;;;34.1;65.2
56359;BME280;42611;51.132;13.588;2023-06-22T13:51:01;1015.3;;;34.0;64.9
56359;BME280;42611;51.132;13.588;2023-06-22T13:54:01;1015.3;;;33.9;66.9
56359;BME280;42611;51.132;13.588;2023-06-22T13:55:01;1015.3;;;33.8;65.3
56359;BME280;42611;51.132;13.588;2023-06-22T13:57:01;1015.3;;;33.7;65.5
56359;BME280;42611;51.132;13.588;2023-06-22T13:58:01;1015.2;;;33.6;66.6
56359;BME280;42611;51.132;13.588;2023-06-22T14:00:02;1015.2;;;33.5;66.7